Česky Dansk Deutsch English Español Suomi Français Magyar Italiano Nederlands norsk Polski Português svenska Türkçe

 

Het Weer

Jendouba (Tunisia)

17:00, 2 augustus 2016 (GMT)

NWNNE
WE
SWSSE
Home            
Jendouba Tabarka Annaba Bizerte Tebessa Tunis-Carthage Kairouan Skikda Habib Bourguiba Constantine Monastir-Skanes Kelibia Gafsa Batna Sfax El-Maou Jijel Achouat Pantelleria Tozeur Capo Carbonara Setif Cagliari / Elmas Gabes Decimomannu

Om een weerknop op uw website of weblog te plaatsen, copieer onderstaande code en plak die in uw pagina. In het eerste vakje staat HTML-code, in het tweede vakje UBB-code.


Add to Google

Details

Wind speed:4 bf, 12 kn, 6.2 m/s, 13.8 miles/h, 22.2 km/h
Wind direction:NW, 310°
Visibility:Greater than 10000 m, 10 km, 32800 ft, 6.2 miles
Clouds:CAVOC
Temperature:31°C, 88°F
Gefühlte Temperatur:31°C, 87°F
Dew-point:15°C, 59°F
Atmospheric pressure:1016 hPa, 762.1 mmHg, 30.00 inHg, 1.003 atm
Relative humidity:38.0 %
METAR:DTTN 021700Z 31012KT CAVOK 31/15 Q1016

Snelkoppelingen

Actuele weersinformatie van de hele wereld. Voeg locaties toe met het plus (+) symbool. Deze snelkoppelingen kunnen worden toegevoegd aan Google.

Lid van de Technetium groep

website free tracking
StatCounter NetStat W3C Validator

26-05-2024 06:11:36
astro.technetium.be money.technetium.be phote.technetium.be tafeltennistafel.technetium.be www.ligfiets.net